KMBL/MBL METAR and TAF weather

Enter ICAO airport designator
Station Type Date Time Source
KMBL METAR 2019/06/26 17:56 UTC NOAA

KMBL 261756Z AUTO 27010KT 10SM CLR 25/16 A3003 RMK AO2 SLP168 T02500161 10256 20167 50007


Station Type Date Time Source
KMBL Decoded METAR 2019/06/26 17:56 UTC NOAA

Manistee, Manistee County-Blacker Airport, MI, United States (KMBL) 44-16N 086-15W
Jun 26, 2019 - 01:56 PM EDT / 2019.06.26 1756 UTC
Wind: from the W (270 degrees) at 12 MPH (10 KT):0
Visibility: 10 mile(s):0
Sky conditions: clear
Temperature: 77.0 F (25.0 C)
Dew Point: 61.0 F (16.1 C)
Relative Humidity: 57%
Pressure (altimeter): 30.03 in. Hg (1016 hPa)
Pressure tendency: 0.02 inches (0.7 hPa) higher than three hours ago
ob: KMBL 261756Z AUTO 27010KT 10SM CLR 25/16 A3003 RMK AO2 SLP168 T02500161 10256 20167 50007
cycle: 18

Station Type Date Time Source
KMBL TAF 2019/06/26 18:21 UTC NOAA

TAF KMBL 261720Z 2618/2718 25011G20KT P6SM SCT250
FM270200 VRB03KT P6SM SCT250
FM271500 21007KT P6SM BKN200

Example: see airport list